CheckWX is a tool to help pilots better visualize weather data.  It is not intended as a substitute for an official pre-flight weather briefing.

13:36:27 UTC

WSSS TAF
Singapore Changi International Airport
Singapore, Singapore
TAF WSSS 181100Z 1812/1918 16010KT 9999 FEW015 SCT020

Aug-18@
12:00 UTC

Aug-18 @ 12:00 UTC

Aug-19@
18:00 UTC

Aug-19 @ 18:00 UTC

TAF WSSS 181100Z 1812/1918 16010KT 9999 FEW015 SCT020
Wind
  • 160° at 10 KTS
Cloud Levels
  • Few at 1,500' AGL
  • Scattered at 2,000' AGL